createdAt,value
2023-05-06T00:01:26.672Z,12.31
2023-05-06T00:03:54.571Z,12.13
2023-05-06T00:06:22.541Z,12.08
2023-05-06T00:08:51.677Z,12.18
2023-05-06T00:11:19.403Z,12.21
2023-05-06T00:13:47.245Z,12.23
2023-05-06T00:16:15.253Z,12.19
2023-05-06T00:18:43.175Z,12.16
2023-05-06T00:21:11.240Z,12.20
2023-05-06T00:23:39.044Z,12.23
2023-05-06T00:26:08.219Z,12.23
2023-05-06T00:28:36.168Z,12.17
2023-05-06T00:31:04.041Z,12.14
2023-05-06T00:33:31.854Z,12.14
2023-05-06T00:35:59.725Z,12.10
2023-05-06T00:38:27.727Z,12.12
2023-05-06T00:40:55.654Z,12.10
2023-05-06T00:43:24.908Z,12.12
2023-05-06T00:45:53.040Z,12.12
2023-05-06T00:48:21.539Z,12.14
2023-05-06T00:50:49.596Z,12.13
2023-05-06T00:53:21.673Z,12.04
2023-05-06T00:55:51.203Z,12.06
2023-05-06T00:58:19.691Z,12.07
2023-05-06T01:00:49.610Z,11.99
2023-05-06T01:03:17.560Z,12.04
2023-05-06T01:06:07.716Z,12.09
2023-05-06T01:08:44.165Z,12.04
2023-05-06T01:11:17.236Z,12.01
2023-05-06T01:13:52.303Z,12.06
2023-05-06T01:16:26.827Z,12.09
2023-05-06T01:18:55.894Z,12.03
2023-05-06T01:21:26.692Z,12.03
2023-05-06T01:23:58.367Z,12.04
2023-05-06T01:26:27.510Z,12.01
2023-05-06T01:28:57.651Z,11.88
2023-05-06T01:31:30.018Z,11.76
2023-05-06T01:34:14.860Z,11.82
2023-05-06T01:36:58.463Z,11.85
2023-05-06T01:39:31.803Z,11.88
2023-05-06T01:42:02.618Z,11.75
2023-05-06T01:44:36.063Z,11.67
2023-05-06T01:47:05.824Z,11.69
2023-05-06T01:49:35.909Z,11.71
2023-05-06T01:52:04.145Z,11.64
2023-05-06T01:54:33.676Z,11.65
2023-05-06T01:57:03.392Z,11.73
2023-05-06T01:59:31.227Z,11.76
2023-05-06T02:01:59.230Z,11.74
2023-05-06T02:04:27.060Z,11.63
2023-05-06T02:06:55.122Z,11.58
2023-05-06T02:09:23.102Z,11.52
2023-05-06T02:11:59.612Z,11.57
2023-05-06T02:14:27.559Z,11.59
2023-05-06T02:16:56.525Z,11.61
2023-05-06T02:19:24.521Z,11.60
2023-05-06T02:21:52.304Z,11.61
2023-05-06T02:24:20.150Z,11.63
2023-05-06T02:26:47.891Z,11.56
2023-05-06T02:29:17.142Z,11.57
2023-05-06T02:31:44.924Z,11.64
2023-05-06T02:36:58.660Z,11.66
2023-05-06T02:39:26.450Z,11.62
2023-05-06T02:41:54.414Z,11.62
2023-05-06T02:44:23.585Z,11.51
2023-05-06T02:46:51.412Z,11.49
2023-05-06T02:49:19.323Z,11.50
2023-05-06T02:51:47.301Z,11.48
2023-05-06T02:54:15.178Z,11.35
2023-05-06T02:56:43.213Z,11.38
2023-05-06T02:59:11.204Z,11.34
2023-05-06T03:01:40.690Z,11.27
2023-05-06T03:04:08.581Z,11.29
2023-05-06T03:06:36.613Z,11.32
2023-05-06T03:09:05.068Z,11.35
2023-05-06T03:11:33.228Z,11.36
2023-05-06T03:14:05.175Z,11.34
2023-05-06T03:16:33.316Z,11.29
2023-05-06T03:19:03.754Z,11.30
2023-05-06T03:21:32.694Z,11.20
2023-05-06T03:24:00.941Z,11.01
2023-05-06T03:26:30.606Z,10.92
2023-05-06T03:28:59.069Z,11.01
2023-05-06T03:31:27.148Z,10.97
2023-05-06T03:33:56.098Z,11.02
2023-05-06T03:36:25.726Z,11.02
2023-05-06T03:38:55.180Z,11.07
2023-05-06T03:41:25.305Z,11.00
2023-05-06T03:43:55.660Z,10.85
2023-05-06T03:46:26.540Z,10.79
2023-05-06T03:48:54.733Z,10.89
2023-05-06T03:51:22.720Z,10.87
2023-05-06T03:53:54.671Z,10.80
2023-05-06T03:56:23.163Z,10.77
2023-05-06T03:58:56.513Z,10.76
2023-05-06T04:01:26.818Z,10.60
2023-05-06T04:03:55.021Z,10.58
2023-05-06T04:06:26.155Z,10.55
2023-05-06T04:08:55.566Z,10.47
2023-05-06T04:11:24.992Z,10.60
2023-05-06T04:13:53.181Z,10.61
2023-05-06T04:16:23.498Z,10.63
2023-05-06T04:18:51.512Z,10.67
2023-05-06T04:21:19.814Z,10.67
2023-05-06T04:23:55.789Z,10.61
2023-05-06T04:26:31.456Z,10.61
2023-05-06T04:28:59.493Z,10.56
2023-05-06T04:31:29.033Z,10.51
2023-05-06T04:34:01.577Z,10.55
2023-05-06T04:36:31.615Z,10.68
2023-05-06T04:39:16.285Z,10.81
2023-05-06T04:41:44.539Z,10.85
2023-05-06T04:44:15.764Z,10.86
2023-05-06T04:46:46.433Z,11.02
2023-05-06T04:49:16.267Z,11.01
2023-05-06T04:51:44.091Z,10.94
2023-05-06T04:54:12.312Z,10.96
2023-05-06T04:56:42.831Z,10.97
2023-05-06T04:59:13.248Z,11.03
2023-05-06T05:01:43.252Z,11.00
2023-05-06T05:04:12.242Z,11.01
2023-05-06T05:06:41.166Z,11.18
2023-05-06T05:09:10.622Z,11.23
2023-05-06T05:11:42.714Z,11.42
2023-05-06T05:14:10.557Z,11.49
2023-05-06T05:16:38.928Z,11.67
2023-05-06T05:19:09.035Z,11.81
2023-05-06T05:21:37.562Z,11.81
2023-05-06T05:24:06.737Z,11.87
2023-05-06T05:26:34.754Z,11.93
2023-05-06T05:29:04.471Z,12.01
2023-05-06T05:31:33.481Z,12.00
2023-05-06T05:34:01.989Z,12.08
2023-05-06T05:36:30.282Z,12.14
2023-05-06T05:39:00.332Z,12.15
2023-05-06T05:41:30.591Z,12.31
2023-05-06T05:43:58.495Z,12.38
2023-05-06T05:46:29.138Z,12.51
2023-05-06T05:48:58.311Z,12.67
2023-05-06T05:51:26.965Z,12.68
2023-05-06T05:53:55.811Z,12.87
2023-05-06T05:56:25.795Z,12.76
2023-05-06T05:58:53.673Z,12.67
2023-05-06T06:01:21.513Z,12.86
2023-05-06T06:03:51.557Z,12.87
2023-05-06T06:06:19.927Z,13.02
2023-05-06T06:08:48.114Z,13.05
2023-05-06T06:11:16.777Z,13.15
2023-05-06T06:13:46.796Z,13.31
2023-05-06T06:16:16.187Z,13.36
2023-05-06T06:18:44.313Z,13.39
2023-05-06T06:21:13.417Z,13.68
2023-05-06T06:23:42.000Z,13.64
2023-05-06T06:26:12.142Z,13.73
2023-05-06T06:28:40.346Z,13.91
2023-05-06T06:31:08.093Z,14.04
2023-05-06T06:33:36.048Z,14.08
2023-05-06T06:36:04.168Z,14.09
2023-05-06T06:38:33.556Z,14.22
2023-05-06T06:41:01.470Z,14.37
2023-05-06T06:43:29.341Z,14.51
2023-05-06T06:46:00.866Z,14.53
2023-05-06T06:48:28.886Z,14.78
2023-05-06T06:50:56.634Z,14.62
2023-05-06T06:53:24.593Z,14.71
2023-05-06T06:55:53.869Z,14.92
2023-05-06T06:58:21.732Z,14.89
2023-05-06T07:00:49.464Z,15.09
2023-05-06T07:03:19.475Z,15.21
2023-05-06T07:05:48.024Z,15.33
2023-05-06T07:08:17.043Z,15.59
2023-05-06T07:10:44.971Z,15.69
2023-05-06T07:13:14.899Z,15.67
2023-05-06T07:15:42.698Z,15.71
2023-05-06T07:18:10.756Z,15.76
2023-05-06T07:20:38.598Z,15.98
2023-05-06T07:23:06.487Z,16.00
2023-05-06T07:25:35.401Z,16.22
2023-05-06T07:28:03.571Z,16.25
2023-05-06T07:30:33.297Z,16.22
2023-05-06T07:33:01.298Z,16.40
2023-05-06T07:35:29.231Z,16.35
2023-05-06T07:37:57.081Z,16.22
2023-05-06T07:40:24.997Z,15.96
2023-05-06T07:42:52.934Z,16.14
2023-05-06T07:45:23.425Z,16.33
2023-05-06T07:47:52.865Z,16.41
2023-05-06T07:50:20.891Z,16.40
2023-05-06T07:52:48.965Z,16.56
2023-05-06T07:55:17.071Z,16.80
2023-05-06T07:57:44.932Z,16.85
2023-05-06T08:00:13.635Z,17.14
2023-05-06T08:02:44.751Z,17.22
2023-05-06T08:05:14.661Z,17.41
2023-05-06T08:07:43.183Z,17.44
2023-05-06T08:10:11.572Z,17.49
2023-05-06T08:12:39.457Z,17.73
2023-05-06T08:15:09.787Z,17.59
2023-05-06T08:17:37.938Z,17.78
2023-05-06T08:20:07.454Z,17.75
2023-05-06T08:22:36.949Z,17.78
2023-05-06T08:25:05.617Z,18.02
2023-05-06T08:27:33.493Z,18.34
2023-05-06T08:30:01.382Z,18.56
2023-05-06T08:32:29.157Z,18.58
2023-05-06T08:34:56.932Z,19.03
2023-05-06T08:37:24.880Z,19.23
2023-05-06T08:39:53.949Z,19.31
2023-05-06T08:42:25.080Z,19.64
2023-05-06T08:44:55.407Z,19.70
2023-05-06T08:47:23.565Z,19.69
2023-05-06T08:49:51.553Z,19.70
2023-05-06T08:52:21.299Z,19.96
2023-05-06T08:54:54.479Z,19.83
2023-05-06T08:57:23.981Z,19.72
2023-05-06T08:59:52.051Z,19.48
2023-05-06T09:02:21.617Z,19.80
2023-05-06T09:04:50.121Z,20.50
2023-05-06T09:07:18.486Z,20.84
2023-05-06T09:09:46.416Z,20.74
2023-05-06T09:12:15.048Z,21.14
2023-05-06T09:14:44.383Z,21.19
2023-05-06T09:17:26.577Z,21.87
2023-05-06T09:19:57.282Z,22.42
2023-05-06T09:22:27.822Z,22.82
2023-05-06T09:24:56.991Z,23.09
2023-05-06T09:27:29.203Z,22.93
2023-05-06T09:30:03.102Z,22.81
2023-05-06T09:32:31.868Z,23.51
2023-05-06T09:35:00.328Z,23.41
2023-05-06T09:37:28.800Z,23.47
2023-05-06T09:39:59.642Z,23.95
2023-05-06T09:42:29.423Z,24.61
2023-05-06T09:45:07.898Z,24.40
2023-05-06T09:47:36.277Z,25.15
2023-05-06T09:50:05.279Z,25.52
2023-05-06T09:52:34.032Z,25.47
2023-05-06T09:55:04.016Z,25.53
2023-05-06T09:57:33.239Z,25.76
2023-05-06T10:00:03.860Z,25.95
2023-05-06T10:02:41.567Z,26.70
2023-05-06T10:05:12.440Z,26.24
2023-05-06T10:07:44.145Z,25.48
2023-05-06T10:10:12.911Z,25.00
2023-05-06T10:12:41.211Z,24.37
2023-05-06T10:15:11.271Z,24.52
2023-05-06T10:17:41.811Z,25.05
2023-05-06T10:20:14.032Z,25.30
2023-05-06T10:23:00.497Z,25.07
2023-05-06T10:25:37.231Z,25.04
2023-05-06T10:28:08.345Z,25.59
2023-05-06T10:30:51.941Z,25.24
2023-05-06T10:33:24.778Z,25.13
2023-05-06T10:36:03.195Z,25.89
2023-05-06T10:38:37.427Z,26.54
2023-05-06T10:41:08.063Z,26.72
2023-05-06T10:43:41.990Z,26.97
2023-05-06T10:46:13.647Z,27.44
2023-05-06T10:49:16.240Z,27.59
2023-05-06T10:51:48.379Z,27.86
2023-05-06T10:54:24.343Z,27.94
2023-05-06T10:57:10.955Z,28.57
2023-05-06T10:59:46.609Z,28.71
2023-05-06T11:02:20.352Z,28.73
2023-05-06T11:04:59.508Z,27.50
2023-05-06T11:07:27.598Z,27.96
2023-05-06T11:09:58.240Z,28.39
2023-05-06T11:12:49.636Z,28.40
2023-05-06T11:15:25.930Z,27.81
2023-05-06T11:17:56.736Z,27.74
2023-05-06T11:20:26.856Z,27.80
2023-05-06T11:22:54.794Z,26.96
2023-05-06T11:25:42.963Z,27.25
2023-05-06T11:28:13.247Z,27.36
2023-05-06T11:30:43.118Z,27.21
2023-05-06T11:33:21.844Z,27.29
2023-05-06T11:35:50.425Z,26.74
2023-05-06T11:38:18.436Z,27.33
2023-05-06T11:40:46.631Z,27.76
2023-05-06T11:43:16.308Z,27.96
2023-05-06T11:45:45.776Z,28.84
2023-05-06T11:48:16.869Z,29.22
2023-05-06T11:50:46.015Z,29.29
2023-05-06T11:53:16.469Z,28.14
2023-05-06T11:55:45.109Z,27.52
2023-05-06T11:58:14.571Z,27.71
2023-05-06T12:00:52.415Z,28.38
2023-05-06T12:03:23.142Z,29.12
2023-05-06T12:05:52.038Z,29.15
2023-05-06T12:08:27.786Z,29.63
2023-05-06T12:11:01.706Z,29.41
2023-05-06T12:13:30.556Z,29.70
2023-05-06T12:16:00.154Z,29.56
2023-05-06T12:18:30.582Z,30.26
2023-05-06T12:21:02.898Z,29.81
2023-05-06T12:23:31.128Z,30.70
2023-05-06T12:26:04.770Z,31.03
2023-05-06T12:28:36.026Z,31.52
2023-05-06T12:31:18.937Z,31.20
2023-05-06T12:33:50.211Z,30.34
2023-05-06T12:36:19.346Z,29.84
2023-05-06T12:38:52.502Z,29.10
2023-05-06T12:41:21.415Z,29.16
2023-05-06T12:43:49.308Z,29.71
2023-05-06T12:46:17.501Z,29.96
2023-05-06T12:48:58.804Z,29.85
2023-05-06T12:51:27.402Z,29.37
2023-05-06T12:53:55.413Z,29.51
2023-05-06T12:56:23.594Z,29.69
2023-05-06T12:59:01.987Z,30.16
2023-05-06T13:01:29.903Z,29.68
2023-05-06T13:03:58.948Z,29.33
2023-05-06T13:06:26.826Z,29.29
2023-05-06T13:08:54.691Z,29.44
2023-05-06T13:11:24.344Z,28.99
2023-05-06T13:13:52.455Z,29.28
2023-05-06T13:16:20.407Z,29.82
2023-05-06T13:18:49.222Z,29.86
2023-05-06T13:21:18.404Z,29.22
2023-05-06T13:23:47.814Z,29.00
2023-05-06T13:26:15.889Z,29.04
2023-05-06T13:28:43.643Z,29.35
2023-05-06T13:31:11.519Z,29.95
2023-05-06T13:33:39.470Z,29.90
2023-05-06T13:36:08.045Z,29.82
2023-05-06T13:38:37.393Z,29.89
2023-05-06T13:41:07.365Z,29.85
2023-05-06T13:43:35.348Z,29.73
2023-05-06T13:46:03.879Z,29.39
2023-05-06T13:48:31.733Z,29.19
2023-05-06T13:50:59.799Z,29.61
2023-05-06T13:53:27.742Z,29.85
2023-05-06T13:55:56.883Z,30.13
2023-05-06T13:58:24.710Z,30.75
2023-05-06T14:00:52.521Z,30.33
2023-05-06T14:03:20.766Z,30.30
2023-05-06T14:05:48.633Z,30.18
2023-05-06T14:08:16.466Z,29.49
2023-05-06T14:10:44.505Z,29.10
2023-05-06T14:13:13.704Z,29.13
2023-05-06T14:15:41.704Z,28.83
2023-05-06T14:18:09.770Z,28.91
2023-05-06T14:20:37.719Z,29.12
2023-05-06T14:23:07.164Z,29.25
2023-05-06T14:25:34.963Z,29.61
2023-05-06T14:28:02.833Z,29.58
2023-05-06T14:30:34.344Z,29.77
2023-05-06T14:33:02.404Z,29.12
2023-05-06T14:35:30.302Z,29.25
2023-05-06T14:37:58.288Z,28.95
2023-05-06T14:40:26.357Z,28.59
2023-05-06T14:42:54.192Z,28.75
2023-05-06T14:45:21.999Z,28.21
2023-05-06T14:47:51.589Z,27.59
2023-05-06T14:50:19.587Z,27.36
2023-05-06T14:52:48.188Z,27.63
2023-05-06T14:55:16.081Z,27.38
2023-05-06T14:57:43.949Z,27.14
2023-05-06T15:00:14.838Z,26.90
2023-05-06T15:02:42.996Z,26.82
2023-05-06T15:05:12.998Z,26.73
2023-05-06T15:07:41.630Z,26.92
2023-05-06T15:10:10.122Z,26.62
2023-05-06T15:12:37.875Z,26.59
2023-05-06T15:15:08.152Z,26.69
2023-05-06T15:17:36.308Z,26.73
2023-05-06T15:20:06.714Z,26.76
2023-05-06T15:22:37.949Z,26.34
2023-05-06T15:25:12.290Z,26.11
2023-05-06T15:27:42.442Z,26.10
2023-05-06T15:30:11.345Z,26.00
2023-05-06T15:32:39.276Z,25.79
2023-05-06T15:35:08.280Z,25.81
2023-05-06T15:37:37.505Z,25.55
2023-05-06T15:40:11.133Z,25.57
2023-05-06T15:42:40.037Z,25.64
2023-05-06T15:45:09.242Z,25.63
2023-05-06T15:47:37.175Z,25.26
2023-05-06T15:50:16.516Z,24.97
2023-05-06T15:52:50.476Z,24.68
2023-05-06T15:57:46.793Z,24.52
2023-05-06T16:00:15.089Z,24.43
2023-05-06T16:02:42.983Z,24.25
2023-05-06T16:05:10.942Z,24.58
2023-05-06T16:07:38.925Z,24.27
2023-05-06T16:10:09.193Z,24.48
2023-05-06T16:12:37.279Z,24.35
2023-05-06T16:15:06.532Z,24.15
2023-05-06T16:17:37.556Z,24.16
2023-05-06T16:20:10.141Z,23.95
2023-05-06T16:22:39.950Z,24.14
2023-05-06T16:25:09.840Z,24.05
2023-05-06T16:27:37.665Z,24.05
2023-05-06T16:30:07.397Z,23.77
2023-05-06T16:32:35.407Z,23.86
2023-05-06T16:35:03.578Z,23.59
2023-05-06T16:37:31.535Z,23.76
2023-05-06T16:39:59.252Z,23.75
2023-05-06T16:42:28.495Z,23.61
2023-05-06T16:44:56.280Z,23.32
2023-05-06T16:47:24.405Z,23.20
2023-05-06T16:49:52.674Z,23.27
2023-05-06T16:52:20.914Z,23.21
2023-05-06T16:54:51.170Z,23.06
2023-05-06T16:57:19.538Z,22.89
2023-05-06T16:59:48.608Z,23.11
2023-05-06T17:02:16.448Z,23.03
2023-05-06T17:04:44.270Z,22.87
2023-05-06T17:07:12.032Z,22.76
2023-05-06T17:09:39.830Z,22.85
2023-05-06T17:12:07.914Z,22.82
2023-05-06T17:14:35.776Z,22.81
2023-05-06T17:17:05.411Z,22.63
2023-05-06T17:19:33.651Z,22.59
2023-05-06T17:22:01.485Z,22.44
2023-05-06T17:24:29.230Z,22.62
2023-05-06T17:26:57.057Z,22.38
2023-05-06T17:29:24.857Z,22.28
2023-05-06T17:31:52.755Z,22.35
2023-05-06T17:36:54.704Z,22.12
2023-05-06T17:39:22.462Z,22.15
2023-05-06T17:41:50.274Z,22.01
2023-05-06T17:44:18.415Z,21.98
2023-05-06T17:46:46.435Z,21.89
2023-05-06T17:49:14.317Z,21.87
2023-05-06T17:51:45.520Z,21.99
2023-05-06T17:54:13.395Z,21.92
2023-05-06T17:56:41.306Z,21.94
2023-05-06T17:59:09.254Z,21.86
2023-05-06T18:01:37.113Z,21.79
2023-05-06T18:04:05.518Z,21.82
2023-05-06T18:06:33.549Z,21.73
2023-05-06T18:09:03.123Z,21.73
2023-05-06T18:11:31.027Z,21.71
2023-05-06T18:13:58.984Z,21.76
2023-05-06T18:16:26.777Z,21.69
2023-05-06T18:18:54.718Z,21.54
2023-05-06T18:21:23.057Z,21.52
2023-05-06T18:23:55.699Z,21.28
2023-05-06T18:26:43.425Z,21.38
2023-05-06T18:29:13.153Z,21.28
2023-05-06T18:31:40.931Z,21.03
2023-05-06T18:34:08.793Z,20.85
2023-05-06T18:36:36.675Z,20.69
2023-05-06T18:39:04.825Z,20.24
2023-05-06T18:41:33.987Z,19.81
2023-05-06T18:46:49.414Z,19.71
2023-05-06T18:49:17.281Z,19.61
2023-05-06T18:51:45.211Z,19.41
2023-05-06T18:54:14.225Z,19.49
2023-05-06T18:56:46.484Z,19.43
2023-05-06T18:59:14.614Z,19.27
2023-05-06T19:01:42.895Z,19.03
2023-05-06T19:04:10.902Z,18.90
2023-05-06T19:06:38.843Z,18.77
2023-05-06T19:09:07.182Z,18.65
2023-05-06T19:11:35.278Z,18.40
2023-05-06T19:14:04.394Z,18.18
2023-05-06T19:16:32.291Z,18.02
2023-05-06T19:19:02.414Z,17.93
2023-05-06T19:21:31.341Z,17.75
2023-05-06T19:24:00.846Z,17.71
2023-05-06T19:26:28.736Z,17.64
2023-05-06T19:28:56.576Z,17.59
2023-05-06T19:31:25.908Z,17.52
2023-05-06T19:33:53.765Z,17.57
2023-05-06T19:36:21.701Z,17.55
2023-05-06T19:38:49.466Z,17.51
2023-05-06T19:41:17.305Z,17.45
2023-05-06T19:43:45.288Z,17.43
2023-05-06T19:46:13.892Z,17.34
2023-05-06T19:48:43.043Z,17.34
2023-05-06T19:51:10.956Z,17.39
2023-05-06T19:53:38.916Z,17.41
2023-05-06T19:56:11.276Z,17.49
2023-05-06T19:58:40.691Z,17.41
2023-05-06T20:01:09.034Z,17.36
2023-05-06T20:03:37.595Z,17.44
2023-05-06T20:06:06.955Z,17.48
2023-05-06T20:08:35.462Z,17.54
2023-05-06T20:11:03.484Z,17.46
2023-05-06T20:13:31.671Z,17.38
2023-05-06T20:15:59.660Z,17.33
2023-05-06T20:18:27.548Z,17.29
2023-05-06T20:20:56.210Z,17.17
2023-05-06T20:23:25.853Z,17.27
2023-05-06T20:25:53.694Z,17.34
2023-05-06T20:28:21.575Z,17.33
2023-05-06T20:30:49.901Z,17.33
2023-05-06T20:33:17.845Z,17.21
2023-05-06T20:35:45.722Z,17.11
2023-05-06T20:38:16.881Z,17.08
2023-05-06T20:40:47.265Z,17.02
2023-05-06T20:43:15.108Z,17.06
2023-05-06T20:45:42.826Z,17.12
2023-05-06T20:48:12.319Z,17.04
2023-05-06T20:50:41.897Z,17.14
2023-05-06T20:53:09.628Z,17.13
2023-05-06T20:55:38.471Z,17.08
2023-05-06T20:58:07.532Z,17.18
2023-05-06T21:00:35.423Z,17.22
2023-05-06T21:03:03.925Z,17.30
2023-05-06T21:05:32.758Z,17.30
2023-05-06T21:08:00.564Z,17.29
2023-05-06T21:10:28.569Z,17.25
2023-05-06T21:12:56.326Z,17.04
2023-05-06T21:15:25.530Z,17.06
2023-05-06T21:17:53.491Z,17.14
2023-05-06T21:20:21.396Z,17.12
2023-05-06T21:22:49.099Z,17.17
2023-05-06T21:25:17.261Z,17.20
2023-05-06T21:27:45.002Z,17.24
2023-05-06T21:30:13.786Z,17.28
2023-05-06T21:32:43.860Z,17.12
2023-05-06T21:35:11.998Z,17.12
2023-05-06T21:37:39.864Z,17.08
2023-05-06T21:40:09.802Z,17.15
2023-05-06T21:42:37.774Z,17.05
2023-05-06T21:45:07.278Z,17.14
2023-05-06T21:47:35.305Z,17.18
2023-05-06T21:50:05.896Z,17.20
2023-05-06T21:52:33.861Z,17.22
2023-05-06T21:55:01.809Z,17.13
2023-05-06T21:57:29.558Z,17.13
2023-05-06T21:59:57.380Z,17.26
2023-05-06T22:02:25.335Z,17.21
2023-05-06T22:04:54.333Z,17.32
2023-05-06T22:07:23.414Z,17.39
2023-05-06T22:09:51.317Z,17.31
2023-05-06T22:12:19.066Z,17.35
2023-05-06T22:14:47.114Z,17.33
2023-05-06T22:17:15.632Z,17.34
2023-05-06T22:19:43.565Z,17.40
2023-05-06T22:22:11.842Z,17.40
2023-05-06T22:24:41.260Z,17.39
2023-05-06T22:27:09.186Z,17.39
2023-05-06T22:29:37.097Z,17.41
2023-05-06T22:32:05.918Z,17.35
2023-05-06T22:34:34.086Z,17.27
2023-05-06T22:37:08.426Z,17.30
2023-05-06T22:39:36.270Z,17.32
2023-05-06T22:42:05.565Z,17.27
2023-05-06T22:44:33.599Z,17.25
2023-05-06T22:47:01.317Z,17.32
2023-05-06T22:49:30.012Z,17.26
2023-05-06T22:51:57.953Z,17.21
2023-05-06T22:54:25.879Z,17.21
2023-05-06T22:56:53.674Z,17.14
2023-05-06T22:59:23.047Z,17.15
2023-05-06T23:01:51.055Z,17.20
2023-05-06T23:04:18.985Z,17.16
2023-05-06T23:06:46.812Z,17.18
2023-05-06T23:09:14.634Z,17.21
2023-05-06T23:11:42.554Z,17.17
2023-05-06T23:14:10.514Z,17.12
2023-05-06T23:16:39.733Z,17.10
2023-05-06T23:19:07.567Z,17.10
2023-05-06T23:21:35.448Z,17.07
2023-05-06T23:24:03.631Z,17.03
2023-05-06T23:26:31.363Z,17.04
2023-05-06T23:28:59.312Z,17.06
2023-05-06T23:31:27.150Z,17.06
2023-05-06T23:33:56.410Z,17.01
2023-05-06T23:36:24.299Z,17.02
2023-05-06T23:38:52.074Z,16.95
2023-05-06T23:41:19.777Z,16.98
2023-05-06T23:43:47.690Z,16.92
2023-05-06T23:46:15.535Z,16.89
2023-05-06T23:48:43.367Z,16.95
2023-05-06T23:51:12.530Z,16.98
2023-05-06T23:53:40.769Z,16.91
2023-05-06T23:56:08.492Z,16.94
2023-05-06T23:58:36.442Z,16.90
